sensor_id;sensor_type;location;lat;lon;timestamp;P1;durP1;ratioP1;P2;durP2;ratioP2
71566;SDS011;59403;47.456;19.120;2023-09-08T00:02:03;7.78;;;5.45;;
71566;SDS011;59403;47.456;19.120;2023-09-08T00:04:30;7.82;;;5.65;;
71566;SDS011;59403;47.456;19.120;2023-09-08T00:06:58;9.93;;;6.40;;
71566;SDS011;59403;47.456;19.120;2023-09-08T00:09:24;9.77;;;6.13;;
71566;SDS011;59403;47.456;19.120;2023-09-08T00:11:51;12.43;;;6.43;;
71566;SDS011;59403;47.456;19.120;2023-09-08T00:14:20;9.50;;;6.03;;
71566;SDS011;59403;47.456;19.120;2023-09-08T00:16:48;8.85;;;5.87;;
71566;SDS011;59403;47.456;19.120;2023-09-08T00:19:16;11.32;;;6.85;;
71566;SDS011;59403;47.456;19.120;2023-09-08T00:21:43;14.07;;;6.77;;
71566;SDS011;59403;47.456;19.120;2023-09-08T00:24:10;9.02;;;5.78;;
71566;SDS011;59403;47.456;19.120;2023-09-08T00:26:37;10.80;;;6.68;;
71566;SDS011;59403;47.456;19.120;2023-09-08T00:29:05;11.52;;;6.12;;
71566;SDS011;59403;47.456;19.120;2023-09-08T00:31:34;10.18;;;6.50;;
71566;SDS011;59403;47.456;19.120;2023-09-08T00:34:01;10.73;;;7.30;;
71566;SDS011;59403;47.456;19.120;2023-09-08T00:36:27;10.77;;;7.03;;
71566;SDS011;59403;47.456;19.120;2023-09-08T00:38:54;10.73;;;6.75;;
71566;SDS011;59403;47.456;19.120;2023-09-08T00:41:22;8.27;;;6.05;;
71566;SDS011;59403;47.456;19.120;2023-09-08T00:43:49;9.63;;;7.03;;
71566;SDS011;59403;47.456;19.120;2023-09-08T00:46:16;10.47;;;6.80;;
71566;SDS011;59403;47.456;19.120;2023-09-08T00:48:44;8.73;;;6.65;;
71566;SDS011;59403;47.456;19.120;2023-09-08T00:51:12;11.30;;;6.28;;
71566;SDS011;59403;47.456;19.120;2023-09-08T00:53:39;10.48;;;6.40;;
71566;SDS011;59403;47.456;19.120;2023-09-08T00:56:06;9.13;;;6.53;;
71566;SDS011;59403;47.456;19.120;2023-09-08T00:58:35;8.17;;;6.30;;
71566;SDS011;59403;47.456;19.120;2023-09-08T01:01:02;24.73;;;7.82;;
71566;SDS011;59403;47.456;19.120;2023-09-08T01:03:30;13.02;;;7.20;;
71566;SDS011;59403;47.456;19.120;2023-09-08T01:05:59;11.02;;;6.80;;
71566;SDS011;59403;47.456;19.120;2023-09-08T01:08:26;10.45;;;6.65;;
71566;SDS011;59403;47.456;19.120;2023-09-08T01:10:54;10.13;;;6.23;;
71566;SDS011;59403;47.456;19.120;2023-09-08T01:13:22;10.18;;;6.20;;
71566;SDS011;59403;47.456;19.120;2023-09-08T01:15:49;9.98;;;6.22;;
71566;SDS011;59403;47.456;19.120;2023-09-08T01:18:16;8.32;;;5.97;;
71566;SDS011;59403;47.456;19.120;2023-09-08T01:20:55;9.00;;;6.18;;
71566;SDS011;59403;47.456;19.120;2023-09-08T01:23:42;10.27;;;5.70;;
71566;SDS011;59403;47.456;19.120;2023-09-08T01:26:25;9.13;;;6.15;;
71566;SDS011;59403;47.456;19.120;2023-09-08T01:28:57;9.10;;;5.90;;
71566;SDS011;59403;47.456;19.120;2023-09-08T01:31:26;8.18;;;5.57;;
71566;SDS011;59403;47.456;19.120;2023-09-08T01:33:53;8.52;;;5.75;;
71566;SDS011;59403;47.456;19.120;2023-09-08T01:36:20;8.40;;;5.93;;
71566;SDS011;59403;47.456;19.120;2023-09-08T01:38:47;8.45;;;5.90;;
71566;SDS011;59403;47.456;19.120;2023-09-08T01:41:14;9.13;;;5.97;;
71566;SDS011;59403;47.456;19.120;2023-09-08T01:43:42;8.45;;;5.78;;
71566;SDS011;59403;47.456;19.120;2023-09-08T01:46:09;8.45;;;5.60;;
71566;SDS011;59403;47.456;19.120;2023-09-08T01:48:36;8.90;;;5.50;;
71566;SDS011;59403;47.456;19.120;2023-09-08T01:51:03;9.95;;;5.87;;
71566;SDS011;59403;47.456;19.120;2023-09-08T01:53:29;8.13;;;5.65;;
71566;SDS011;59403;47.456;19.120;2023-09-08T01:55:56;8.23;;;5.80;;
71566;SDS011;59403;47.456;19.120;2023-09-08T01:58:23;9.48;;;5.97;;
71566;SDS011;59403;47.456;19.120;2023-09-08T02:00:51;8.97;;;5.47;;
71566;SDS011;59403;47.456;19.120;2023-09-08T02:03:18;7.68;;;5.28;;
71566;SDS011;59403;47.456;19.120;2023-09-08T02:05:45;8.70;;;5.57;;
71566;SDS011;59403;47.456;19.120;2023-09-08T02:08:12;10.77;;;5.93;;
71566;SDS011;59403;47.456;19.120;2023-09-08T02:10:40;9.00;;;6.03;;
71566;SDS011;59403;47.456;19.120;2023-09-08T02:13:07;9.70;;;5.40;;
71566;SDS011;59403;47.456;19.120;2023-09-08T02:15:34;7.95;;;6.28;;
71566;SDS011;59403;47.456;19.120;2023-09-08T02:18:04;8.60;;;6.07;;
71566;SDS011;59403;47.456;19.120;2023-09-08T02:20:32;8.10;;;5.90;;
71566;SDS011;59403;47.456;19.120;2023-09-08T02:23:03;8.15;;;5.90;;
71566;SDS011;59403;47.456;19.120;2023-09-08T02:25:31;10.27;;;6.33;;
71566;SDS011;59403;47.456;19.120;2023-09-08T02:27:58;8.77;;;5.82;;
71566;SDS011;59403;47.456;19.120;2023-09-08T02:30:25;8.15;;;5.93;;
71566;SDS011;59403;47.456;19.120;2023-09-08T02:32:52;8.52;;;5.68;;
71566;SDS011;59403;47.456;19.120;2023-09-08T02:35:21;8.75;;;6.68;;
71566;SDS011;59403;47.456;19.120;2023-09-08T02:37:49;8.90;;;6.07;;
71566;SDS011;59403;47.456;19.120;2023-09-08T02:40:15;8.25;;;5.47;;
71566;SDS011;59403;47.456;19.120;2023-09-08T02:42:43;10.93;;;6.90;;
71566;SDS011;59403;47.456;19.120;2023-09-08T02:45:10;9.02;;;5.78;;
71566;SDS011;59403;47.456;19.120;2023-09-08T02:47:37;11.55;;;6.32;;
71566;SDS011;59403;47.456;19.120;2023-09-08T02:50:04;8.77;;;6.43;;
71566;SDS011;59403;47.456;19.120;2023-09-08T02:52:34;8.65;;;6.40;;
71566;SDS011;59403;47.456;19.120;2023-09-08T02:55:00;8.70;;;6.20;;
71566;SDS011;59403;47.456;19.120;2023-09-08T02:57:27;10.35;;;6.75;;
71566;SDS011;59403;47.456;19.120;2023-09-08T02:59:54;7.28;;;5.57;;
71566;SDS011;59403;47.456;19.120;2023-09-08T03:02:21;10.07;;;6.33;;
71566;SDS011;59403;47.456;19.120;2023-09-08T03:04:48;7.62;;;5.93;;
71566;SDS011;59403;47.456;19.120;2023-09-08T03:07:15;12.75;;;6.85;;
71566;SDS011;59403;47.456;19.120;2023-09-08T03:09:43;13.80;;;6.85;;
71566;SDS011;59403;47.456;19.120;2023-09-08T03:12:10;10.07;;;6.95;;
71566;SDS011;59403;47.456;19.120;2023-09-08T03:14:37;8.93;;;5.70;;
71566;SDS011;59403;47.456;19.120;2023-09-08T03:17:04;9.50;;;5.62;;
71566;SDS011;59403;47.456;19.120;2023-09-08T03:19:31;11.02;;;6.87;;
71566;SDS011;59403;47.456;19.120;2023-09-08T03:21:58;9.00;;;6.30;;
71566;SDS011;59403;47.456;19.120;2023-09-08T03:24:25;10.40;;;6.25;;
71566;SDS011;59403;47.456;19.120;2023-09-08T03:26:53;10.60;;;6.77;;
71566;SDS011;59403;47.456;19.120;2023-09-08T03:29:20;10.32;;;6.97;;
71566;SDS011;59403;47.456;19.120;2023-09-08T03:31:47;9.65;;;6.75;;
71566;SDS011;59403;47.456;19.120;2023-09-08T03:34:14;11.38;;;6.80;;
71566;SDS011;59403;47.456;19.120;2023-09-08T03:36:43;9.32;;;6.95;;
71566;SDS011;59403;47.456;19.120;2023-09-08T03:39:09;11.03;;;7.30;;
71566;SDS011;59403;47.456;19.120;2023-09-08T03:41:36;11.23;;;7.90;;
71566;SDS011;59403;47.456;19.120;2023-09-08T03:44:04;10.88;;;7.53;;
71566;SDS011;59403;47.456;19.120;2023-09-08T03:46:31;13.45;;;8.27;;
71566;SDS011;59403;47.456;19.120;2023-09-08T03:48:58;12.43;;;8.02;;
71566;SDS011;59403;47.456;19.120;2023-09-08T03:51:26;10.10;;;8.03;;
71566;SDS011;59403;47.456;19.120;2023-09-08T03:53:53;11.73;;;7.80;;
71566;SDS011;59403;47.456;19.120;2023-09-08T03:56:20;11.63;;;7.85;;
71566;SDS011;59403;47.456;19.120;2023-09-08T03:58:47;11.12;;;7.62;;
71566;SDS011;59403;47.456;19.120;2023-09-08T04:01:15;12.40;;;7.68;;
71566;SDS011;59403;47.456;19.120;2023-09-08T04:03:42;10.07;;;7.57;;
71566;SDS011;59403;47.456;19.120;2023-09-08T04:06:10;10.05;;;7.15;;
71566;SDS011;59403;47.456;19.120;2023-09-08T04:08:37;12.18;;;7.20;;
71566;SDS011;59403;47.456;19.120;2023-09-08T04:11:03;11.45;;;7.40;;
71566;SDS011;59403;47.456;19.120;2023-09-08T04:13:30;12.05;;;7.87;;
71566;SDS011;59403;47.456;19.120;2023-09-08T04:15:57;16.83;;;7.67;;
71566;SDS011;59403;47.456;19.120;2023-09-08T04:18:25;11.77;;;7.00;;
71566;SDS011;59403;47.456;19.120;2023-09-08T04:20:52;11.07;;;7.47;;
71566;SDS011;59403;47.456;19.120;2023-09-08T04:23:19;14.73;;;7.50;;
71566;SDS011;59403;47.456;19.120;2023-09-08T04:25:46;10.25;;;6.70;;
71566;SDS011;59403;47.456;19.120;2023-09-08T04:28:12;11.33;;;7.13;;
71566;SDS011;59403;47.456;19.120;2023-09-08T04:30:41;12.80;;;6.68;;
71566;SDS011;59403;47.456;19.120;2023-09-08T04:33:08;9.57;;;7.00;;
71566;SDS011;59403;47.456;19.120;2023-09-08T04:35:36;12.05;;;7.35;;
71566;SDS011;59403;47.456;19.120;2023-09-08T04:38:03;13.77;;;7.97;;
71566;SDS011;59403;47.456;19.120;2023-09-08T04:40:30;12.27;;;7.57;;
71566;SDS011;59403;47.456;19.120;2023-09-08T04:42:57;13.07;;;6.87;;
71566;SDS011;59403;47.456;19.120;2023-09-08T04:45:23;11.20;;;6.47;;
71566;SDS011;59403;47.456;19.120;2023-09-08T04:47:50;17.40;;;7.65;;
71566;SDS011;59403;47.456;19.120;2023-09-08T04:50:17;11.43;;;7.15;;
71566;SDS011;59403;47.456;19.120;2023-09-08T04:52:45;14.90;;;6.80;;
71566;SDS011;59403;47.456;19.120;2023-09-08T04:55:12;11.20;;;6.50;;
71566;SDS011;59403;47.456;19.120;2023-09-08T04:57:39;10.93;;;7.47;;
71566;SDS011;59403;47.456;19.120;2023-09-08T05:00:06;11.50;;;6.85;;
71566;SDS011;59403;47.456;19.120;2023-09-08T05:02:34;10.05;;;6.82;;
71566;SDS011;59403;47.456;19.120;2023-09-08T05:05:01;8.70;;;6.80;;
71566;SDS011;59403;47.456;19.120;2023-09-08T05:07:27;13.07;;;7.30;;
71566;SDS011;59403;47.456;19.120;2023-09-08T05:09:56;12.68;;;6.75;;
71566;SDS011;59403;47.456;19.120;2023-09-08T05:12:22;9.07;;;6.72;;
71566;SDS011;59403;47.456;19.120;2023-09-08T05:14:49;9.18;;;6.53;;
71566;SDS011;59403;47.456;19.120;2023-09-08T05:17:21;10.80;;;6.80;;
71566;SDS011;59403;47.456;19.120;2023-09-08T05:19:48;12.88;;;6.78;;
71566;SDS011;59403;47.456;19.120;2023-09-08T05:22:15;9.90;;;6.45;;
71566;SDS011;59403;47.456;19.120;2023-09-08T05:24:42;10.95;;;6.37;;
71566;SDS011;59403;47.456;19.120;2023-09-08T05:27:10;9.55;;;6.78;;
71566;SDS011;59403;47.456;19.120;2023-09-08T05:29:37;12.57;;;6.43;;
71566;SDS011;59403;47.456;19.120;2023-09-08T05:32:04;11.75;;;6.07;;
71566;SDS011;59403;47.456;19.120;2023-09-08T05:34:30;9.35;;;6.60;;
71566;SDS011;59403;47.456;19.120;2023-09-08T05:36:57;13.00;;;6.20;;
71566;SDS011;59403;47.456;19.120;2023-09-08T05:39:24;12.98;;;6.72;;
71566;SDS011;59403;47.456;19.120;2023-09-08T05:41:51;9.20;;;6.10;;
71566;SDS011;59403;47.456;19.120;2023-09-08T05:44:19;12.30;;;6.57;;
71566;SDS011;59403;47.456;19.120;2023-09-08T05:46:46;11.20;;;7.00;;
71566;SDS011;59403;47.456;19.120;2023-09-08T05:49:13;11.55;;;6.07;;
71566;SDS011;59403;47.456;19.120;2023-09-08T05:51:40;12.80;;;7.20;;
71566;SDS011;59403;47.456;19.120;2023-09-08T05:54:08;11.53;;;6.90;;
71566;SDS011;59403;47.456;19.120;2023-09-08T05:56:36;11.25;;;6.40;;
71566;SDS011;59403;47.456;19.120;2023-09-08T05:59:03;11.02;;;6.10;;
71566;SDS011;59403;47.456;19.120;2023-09-08T06:01:31;8.85;;;6.37;;
71566;SDS011;59403;47.456;19.120;2023-09-08T06:03:58;10.20;;;6.18;;
71566;SDS011;59403;47.456;19.120;2023-09-08T06:06:25;10.63;;;6.10;;
71566;SDS011;59403;47.456;19.120;2023-09-08T06:08:53;8.95;;;6.35;;
71566;SDS011;59403;47.456;19.120;2023-09-08T06:11:20;11.73;;;6.28;;
71566;SDS011;59403;47.456;19.120;2023-09-08T06:13:48;9.57;;;6.68;;
71566;SDS011;59403;47.456;19.120;2023-09-08T06:16:15;11.40;;;6.95;;
71566;SDS011;59403;47.456;19.120;2023-09-08T06:18:43;9.10;;;6.20;;
71566;SDS011;59403;47.456;19.120;2023-09-08T06:21:11;13.23;;;6.57;;
71566;SDS011;59403;47.456;19.120;2023-09-08T06:23:38;14.90;;;7.75;;
71566;SDS011;59403;47.456;19.120;2023-09-08T06:26:05;12.70;;;6.50;;
71566;SDS011;59403;47.456;19.120;2023-09-08T06:28:32;12.20;;;6.70;;
71566;SDS011;59403;47.456;19.120;2023-09-08T06:30:58;11.47;;;6.60;;
71566;SDS011;59403;47.456;19.120;2023-09-08T06:33:25;11.10;;;6.28;;
71566;SDS011;59403;47.456;19.120;2023-09-08T06:35:54;9.88;;;6.53;;
71566;SDS011;59403;47.456;19.120;2023-09-08T06:38:20;12.30;;;6.97;;
71566;SDS011;59403;47.456;19.120;2023-09-08T06:40:47;9.90;;;6.60;;
71566;SDS011;59403;47.456;19.120;2023-09-08T06:43:14;10.70;;;6.30;;
71566;SDS011;59403;47.456;19.120;2023-09-08T06:45:41;9.68;;;6.62;;
71566;SDS011;59403;47.456;19.120;2023-09-08T06:48:08;11.52;;;6.75;;
71566;SDS011;59403;47.456;19.120;2023-09-08T06:50:35;11.85;;;7.10;;
71566;SDS011;59403;47.456;19.120;2023-09-08T06:53:03;14.38;;;7.25;;
71566;SDS011;59403;47.456;19.120;2023-09-08T06:55:30;14.20;;;7.53;;
71566;SDS011;59403;47.456;19.120;2023-09-08T06:57:57;12.05;;;6.70;;
71566;SDS011;59403;47.456;19.120;2023-09-08T07:00:24;13.38;;;7.05;;
71566;SDS011;59403;47.456;19.120;2023-09-08T07:02:51;9.40;;;6.43;;
71566;SDS011;59403;47.456;19.120;2023-09-08T07:05:18;11.10;;;6.60;;
71566;SDS011;59403;47.456;19.120;2023-09-08T07:07:45;11.97;;;6.27;;
71566;SDS011;59403;47.456;19.120;2023-09-08T07:10:13;10.18;;;6.55;;
71566;SDS011;59403;47.456;19.120;2023-09-08T07:12:40;11.93;;;7.43;;
71566;SDS011;59403;47.456;19.120;2023-09-08T07:15:08;9.05;;;7.30;;
71566;SDS011;59403;47.456;19.120;2023-09-08T07:17:35;9.85;;;6.60;;
71566;SDS011;59403;47.456;19.120;2023-09-08T07:20:02;10.33;;;6.50;;
71566;SDS011;59403;47.456;19.120;2023-09-08T07:22:30;10.27;;;6.75;;
71566;SDS011;59403;47.456;19.120;2023-09-08T07:24:56;10.23;;;6.87;;
71566;SDS011;59403;47.456;19.120;2023-09-08T07:27:25;12.68;;;6.60;;
71566;SDS011;59403;47.456;19.120;2023-09-08T07:29:52;9.45;;;6.80;;
71566;SDS011;59403;47.456;19.120;2023-09-08T07:32:18;10.30;;;7.13;;
71566;SDS011;59403;47.456;19.120;2023-09-08T07:34:45;8.38;;;6.15;;
71566;SDS011;59403;47.456;19.120;2023-09-08T07:37:19;11.70;;;6.85;;
71566;SDS011;59403;47.456;19.120;2023-09-08T07:39:46;12.50;;;6.93;;
71566;SDS011;59403;47.456;19.120;2023-09-08T07:42:13;9.57;;;6.65;;
71566;SDS011;59403;47.456;19.120;2023-09-08T07:44:42;9.03;;;6.67;;
71566;SDS011;59403;47.456;19.120;2023-09-08T07:47:08;9.50;;;6.80;;
71566;SDS011;59403;47.456;19.120;2023-09-08T07:49:35;11.70;;;6.50;;
71566;SDS011;59403;47.456;19.120;2023-09-08T07:52:02;9.70;;;6.53;;
71566;SDS011;59403;47.456;19.120;2023-09-08T07:54:32;10.57;;;6.65;;
71566;SDS011;59403;47.456;19.120;2023-09-08T07:56:59;10.40;;;6.70;;
71566;SDS011;59403;47.456;19.120;2023-09-08T07:59:25;12.68;;;6.45;;
71566;SDS011;59403;47.456;19.120;2023-09-08T08:01:54;10.25;;;6.80;;
71566;SDS011;59403;47.456;19.120;2023-09-08T08:04:20;11.12;;;6.47;;
71566;SDS011;59403;47.456;19.120;2023-09-08T08:06:47;12.30;;;6.55;;
71566;SDS011;59403;47.456;19.120;2023-09-08T08:09:14;10.87;;;6.70;;
71566;SDS011;59403;47.456;19.120;2023-09-08T08:11:41;14.13;;;7.05;;
71566;SDS011;59403;47.456;19.120;2023-09-08T08:14:08;11.88;;;6.60;;
71566;SDS011;59403;47.456;19.120;2023-09-08T08:16:35;11.07;;;6.53;;
71566;SDS011;59403;47.456;19.120;2023-09-08T08:19:03;12.13;;;6.43;;
71566;SDS011;59403;47.456;19.120;2023-09-08T08:21:30;8.83;;;5.93;;
71566;SDS011;59403;47.456;19.120;2023-09-08T08:23:57;12.07;;;6.15;;
71566;SDS011;59403;47.456;19.120;2023-09-08T08:26:23;12.93;;;6.85;;
71566;SDS011;59403;47.456;19.120;2023-09-08T08:28:53;10.88;;;6.32;;
71566;SDS011;59403;47.456;19.120;2023-09-08T08:31:20;13.32;;;6.65;;
71566;SDS011;59403;47.456;19.120;2023-09-08T08:33:47;10.97;;;6.63;;
71566;SDS011;59403;47.456;19.120;2023-09-08T08:36:15;11.35;;;6.32;;
71566;SDS011;59403;47.456;19.120;2023-09-08T08:38:43;11.65;;;6.43;;
71566;SDS011;59403;47.456;19.120;2023-09-08T08:41:10;11.73;;;6.82;;
71566;SDS011;59403;47.456;19.120;2023-09-08T08:43:36;11.63;;;6.30;;
71566;SDS011;59403;47.456;19.120;2023-09-08T08:46:03;9.70;;;5.90;;
71566;SDS011;59403;47.456;19.120;2023-09-08T08:48:31;8.77;;;5.70;;
71566;SDS011;59403;47.456;19.120;2023-09-08T08:50:59;8.98;;;5.70;;
71566;SDS011;59403;47.456;19.120;2023-09-08T08:53:29;9.10;;;6.35;;
71566;SDS011;59403;47.456;19.120;2023-09-08T08:55:58;10.65;;;6.15;;
71566;SDS011;59403;47.456;19.120;2023-09-08T08:58:26;11.67;;;5.70;;
71566;SDS011;59403;47.456;19.120;2023-09-08T09:00:54;7.50;;;5.62;;
71566;SDS011;59403;47.456;19.120;2023-09-08T09:03:24;9.38;;;6.40;;
71566;SDS011;59403;47.456;19.120;2023-09-08T09:05:53;8.13;;;5.90;;
71566;SDS011;59403;47.456;19.120;2023-09-08T09:08:20;9.13;;;6.07;;
71566;SDS011;59403;47.456;19.120;2023-09-08T09:10:50;9.07;;;6.00;;
71566;SDS011;59403;47.456;19.120;2023-09-08T09:13:17;9.05;;;6.40;;
71566;SDS011;59403;47.456;19.120;2023-09-08T09:15:44;8.57;;;6.18;;
71566;SDS011;59403;47.456;19.120;2023-09-08T09:18:11;9.25;;;5.60;;
71566;SDS011;59403;47.456;19.120;2023-09-08T09:20:38;7.97;;;5.90;;
71566;SDS011;59403;47.456;19.120;2023-09-08T09:23:06;7.60;;;5.63;;
71566;SDS011;59403;47.456;19.120;2023-09-08T09:25:33;7.95;;;5.62;;
71566;SDS011;59403;47.456;19.120;2023-09-08T09:28:02;7.90;;;6.05;;
71566;SDS011;59403;47.456;19.120;2023-09-08T09:30:45;8.63;;;5.78;;
71566;SDS011;59403;47.456;19.120;2023-09-08T09:33:13;8.15;;;5.85;;
71566;SDS011;59403;47.456;19.120;2023-09-08T09:35:41;7.47;;;5.63;;
71566;SDS011;59403;47.456;19.120;2023-09-08T09:38:09;7.68;;;5.30;;
71566;SDS011;59403;47.456;19.120;2023-09-08T09:43:04;6.80;;;5.15;;
71566;SDS011;59403;47.456;19.120;2023-09-08T09:45:32;7.97;;;5.62;;
71566;SDS011;59403;47.456;19.120;2023-09-08T09:48:00;5.60;;;5.00;;
71566;SDS011;59403;47.456;19.120;2023-09-08T09:50:29;6.47;;;5.20;;
71566;SDS011;59403;47.456;19.120;2023-09-08T09:52:58;8.48;;;5.60;;
71566;SDS011;59403;47.456;19.120;2023-09-08T09:55:26;6.07;;;5.12;;
71566;SDS011;59403;47.456;19.120;2023-09-08T09:57:55;8.27;;;5.50;;
71566;SDS011;59403;47.456;19.120;2023-09-08T10:00:25;9.70;;;5.33;;
71566;SDS011;59403;47.456;19.120;2023-09-08T10:02:53;6.03;;;4.80;;
71566;SDS011;59403;47.456;19.120;2023-09-08T10:05:21;7.75;;;5.53;;
71566;SDS011;59403;47.456;19.120;2023-09-08T10:07:48;10.70;;;5.50;;
71566;SDS011;59403;47.456;19.120;2023-09-08T10:10:16;9.05;;;5.30;;
71566;SDS011;59403;47.456;19.120;2023-09-08T10:12:44;5.87;;;4.87;;
71566;SDS011;59403;47.456;19.120;2023-09-08T10:15:12;8.32;;;4.70;;
71566;SDS011;59403;47.456;19.120;2023-09-08T10:17:45;7.68;;;5.57;;
71566;SDS011;59403;47.456;19.120;2023-09-08T10:20:18;7.87;;;4.93;;
71566;SDS011;59403;47.456;19.120;2023-09-08T10:22:49;6.95;;;5.20;;
71566;SDS011;59403;47.456;19.120;2023-09-08T10:25:20;7.73;;;5.10;;
71566;SDS011;59403;47.456;19.120;2023-09-08T10:27:50;8.23;;;4.95;;
71566;SDS011;59403;47.456;19.120;2023-09-08T10:30:17;7.85;;;5.28;;
71566;SDS011;59403;47.456;19.120;2023-09-08T10:32:48;7.75;;;4.70;;
71566;SDS011;59403;47.456;19.120;2023-09-08T10:35:16;8.73;;;5.07;;
71566;SDS011;59403;47.456;19.120;2023-09-08T10:37:44;8.73;;;5.20;;
71566;SDS011;59403;47.456;19.120;2023-09-08T10:40:20;7.03;;;5.05;;
71566;SDS011;59403;47.456;19.120;2023-09-08T10:42:48;8.45;;;5.05;;
71566;SDS011;59403;47.456;19.120;2023-09-08T10:45:16;5.65;;;4.93;;
71566;SDS011;59403;47.456;19.120;2023-09-08T10:47:56;5.75;;;4.70;;
71566;SDS011;59403;47.456;19.120;2023-09-08T10:50:28;7.20;;;4.80;;
71566;SDS011;59403;47.456;19.120;2023-09-08T10:53:04;7.62;;;5.12;;
71566;SDS011;59403;47.456;19.120;2023-09-08T10:55:35;7.28;;;5.25;;
71566;SDS011;59403;47.456;19.120;2023-09-08T10:58:03;8.60;;;5.32;;
71566;SDS011;59403;47.456;19.120;2023-09-08T11:00:42;6.55;;;5.07;;
71566;SDS011;59403;47.456;19.120;2023-09-08T11:03:12;8.03;;;4.60;;
71566;SDS011;59403;47.456;19.120;2023-09-08T11:05:41;9.45;;;5.00;;
71566;SDS011;59403;47.456;19.120;2023-09-08T11:08:08;7.82;;;5.10;;
71566;SDS011;59403;47.456;19.120;2023-09-08T11:10:35;5.95;;;5.03;;
71566;SDS011;59403;47.456;19.120;2023-09-08T11:13:06;7.15;;;5.22;;
71566;SDS011;59403;47.456;19.120;2023-09-08T11:15:33;8.60;;;4.77;;
71566;SDS011;59403;47.456;19.120;2023-09-08T11:18:04;8.15;;;4.57;;
71566;SDS011;59403;47.456;19.120;2023-09-08T11:20:34;11.43;;;5.07;;
71566;SDS011;59403;47.456;19.120;2023-09-08T11:23:01;8.32;;;4.60;;
71566;SDS011;59403;47.456;19.120;2023-09-08T11:25:30;6.37;;;4.68;;
71566;SDS011;59403;47.456;19.120;2023-09-08T11:27:58;7.73;;;4.57;;
71566;SDS011;59403;47.456;19.120;2023-09-08T11:30:26;17.40;;;5.43;;
71566;SDS011;59403;47.456;19.120;2023-09-08T11:32:53;11.10;;;5.25;;
71566;SDS011;59403;47.456;19.120;2023-09-08T11:35:20;11.15;;;5.62;;
71566;SDS011;59403;47.456;19.120;2023-09-08T11:37:49;8.23;;;5.10;;
71566;SDS011;59403;47.456;19.120;2023-09-08T11:40:17;5.77;;;5.00;;
71566;SDS011;59403;47.456;19.120;2023-09-08T11:42:45;7.95;;;4.95;;
71566;SDS011;59403;47.456;19.120;2023-09-08T11:45:12;7.32;;;5.15;;
71566;SDS011;59403;47.456;19.120;2023-09-08T11:47:40;7.30;;;5.05;;
71566;SDS011;59403;47.456;19.120;2023-09-08T11:50:08;7.62;;;4.87;;
71566;SDS011;59403;47.456;19.120;2023-09-08T11:52:40;7.60;;;4.77;;
71566;SDS011;59403;47.456;19.120;2023-09-08T11:55:17;7.55;;;5.25;;
71566;SDS011;59403;47.456;19.120;2023-09-08T11:57:46;7.93;;;4.90;;
71566;SDS011;59403;47.456;19.120;2023-09-08T12:00:15;8.40;;;4.82;;
71566;SDS011;59403;47.456;19.120;2023-09-08T12:02:46;9.40;;;4.93;;
71566;SDS011;59403;47.456;19.120;2023-09-08T12:05:13;5.63;;;4.57;;
71566;SDS011;59403;47.456;19.120;2023-09-08T12:07:46;6.57;;;4.45;;
71566;SDS011;59403;47.456;19.120;2023-09-08T12:10:13;8.25;;;5.10;;
71566;SDS011;59403;47.456;19.120;2023-09-08T12:12:42;6.10;;;4.40;;
71566;SDS011;59403;47.456;19.120;2023-09-08T12:15:10;7.53;;;4.70;;
71566;SDS011;59403;47.456;19.120;2023-09-08T12:17:47;5.70;;;4.70;;
71566;SDS011;59403;47.456;19.120;2023-09-08T12:20:15;6.90;;;4.18;;
71566;SDS011;59403;47.456;19.120;2023-09-08T12:22:48;6.20;;;4.72;;
71566;SDS011;59403;47.456;19.120;2023-09-08T12:25:16;9.10;;;4.50;;
71566;SDS011;59403;47.456;19.120;2023-09-08T12:27:45;6.37;;;4.78;;
71566;SDS011;59403;47.456;19.120;2023-09-08T12:30:16;7.10;;;4.63;;
71566;SDS011;59403;47.456;19.120;2023-09-08T12:32:45;10.25;;;4.50;;
71566;SDS011;59403;47.456;19.120;2023-09-08T12:35:13;5.95;;;4.57;;
71566;SDS011;59403;47.456;19.120;2023-09-08T12:37:46;12.68;;;4.45;;
71566;SDS011;59403;47.456;19.120;2023-09-08T12:40:13;6.32;;;4.93;;
71566;SDS011;59403;47.456;19.120;2023-09-08T12:42:41;5.83;;;4.67;;
71566;SDS011;59403;47.456;19.120;2023-09-08T12:45:09;5.53;;;4.65;;
71566;SDS011;59403;47.456;19.120;2023-09-08T12:47:36;8.85;;;4.90;;
71566;SDS011;59403;47.456;19.120;2023-09-08T12:50:03;7.30;;;5.35;;
71566;SDS011;59403;47.456;19.120;2023-09-08T12:52:30;5.93;;;4.43;;
71566;SDS011;59403;47.456;19.120;2023-09-08T12:54:57;6.70;;;4.70;;
71566;SDS011;59403;47.456;19.120;2023-09-08T12:57:24;6.30;;;4.62;;
71566;SDS011;59403;47.456;19.120;2023-09-08T12:59:51;10.93;;;4.75;;
71566;SDS011;59403;47.456;19.120;2023-09-08T13:02:21;8.68;;;4.60;;
71566;SDS011;59403;47.456;19.120;2023-09-08T13:04:48;7.82;;;4.37;;
71566;SDS011;59403;47.456;19.120;2023-09-08T13:07:16;7.50;;;4.10;;
71566;SDS011;59403;47.456;19.120;2023-09-08T13:09:44;8.65;;;5.12;;
71566;SDS011;59403;47.456;19.120;2023-09-08T13:12:11;5.87;;;5.20;;
71566;SDS011;59403;47.456;19.120;2023-09-08T13:14:38;10.50;;;5.03;;
71566;SDS011;59403;47.456;19.120;2023-09-08T13:17:05;8.07;;;4.90;;
71566;SDS011;59403;47.456;19.120;2023-09-08T13:19:33;5.80;;;4.87;;
71566;SDS011;59403;47.456;19.120;2023-09-08T13:22:00;8.73;;;5.28;;
71566;SDS011;59403;47.456;19.120;2023-09-08T13:24:29;8.20;;;4.72;;
71566;SDS011;59403;47.456;19.120;2023-09-08T13:26:57;5.95;;;4.57;;
71566;SDS011;59403;47.456;19.120;2023-09-08T13:29:24;9.52;;;5.50;;
71566;SDS011;59403;47.456;19.120;2023-09-08T13:31:52;6.23;;;4.53;;
71566;SDS011;59403;47.456;19.120;2023-09-08T13:34:19;5.55;;;4.62;;
71566;SDS011;59403;47.456;19.120;2023-09-08T13:36:47;6.43;;;4.80;;
71566;SDS011;59403;47.456;19.120;2023-09-08T13:39:14;7.87;;;5.00;;
71566;SDS011;59403;47.456;19.120;2023-09-08T13:41:45;6.65;;;4.82;;
71566;SDS011;59403;47.456;19.120;2023-09-08T13:44:13;5.40;;;4.27;;
71566;SDS011;59403;47.456;19.120;2023-09-08T13:46:40;6.85;;;4.70;;
71566;SDS011;59403;47.456;19.120;2023-09-08T13:49:07;7.40;;;4.55;;
71566;SDS011;59403;47.456;19.120;2023-09-08T13:51:33;6.57;;;4.70;;
71566;SDS011;59403;47.456;19.120;2023-09-08T13:54:02;8.27;;;4.50;;
71566;SDS011;59403;47.456;19.120;2023-09-08T13:56:29;6.10;;;4.47;;
71566;SDS011;59403;47.456;19.120;2023-09-08T13:58:55;7.15;;;4.50;;
71566;SDS011;59403;47.456;19.120;2023-09-08T14:01:22;8.95;;;5.37;;
71566;SDS011;59403;47.456;19.120;2023-09-08T14:03:50;6.78;;;4.62;;
71566;SDS011;59403;47.456;19.120;2023-09-08T14:06:17;8.23;;;4.70;;
71566;SDS011;59403;47.456;19.120;2023-09-08T14:08:44;6.17;;;5.03;;
71566;SDS011;59403;47.456;19.120;2023-09-08T14:11:12;6.87;;;4.82;;
71566;SDS011;59403;47.456;19.120;2023-09-08T14:13:39;10.15;;;5.00;;
71566;SDS011;59403;47.456;19.120;2023-09-08T14:16:06;6.37;;;4.97;;
71566;SDS011;59403;47.456;19.120;2023-09-08T14:18:33;5.65;;;4.28;;
71566;SDS011;59403;47.456;19.120;2023-09-08T14:21:00;6.53;;;4.70;;
71566;SDS011;59403;47.456;19.120;2023-09-08T14:23:27;7.32;;;4.60;;
71566;SDS011;59403;47.456;19.120;2023-09-08T14:25:55;5.70;;;4.37;;
71566;SDS011;59403;47.456;19.120;2023-09-08T14:28:23;6.97;;;4.53;;
71566;SDS011;59403;47.456;19.120;2023-09-08T14:30:51;7.53;;;4.55;;
71566;SDS011;59403;47.456;19.120;2023-09-08T14:33:18;6.20;;;4.43;;
71566;SDS011;59403;47.456;19.120;2023-09-08T14:35:45;5.80;;;4.60;;